createdAt,value
2023-03-28T00:01:05.698Z,8.51
2023-03-28T00:03:39.469Z,8.54
2023-03-28T00:06:11.088Z,8.39
2023-03-28T00:08:41.009Z,9.01
2023-03-28T00:11:11.633Z,9.21
2023-03-28T00:13:40.076Z,8.87
2023-03-28T00:16:12.961Z,8.60
2023-03-28T00:18:42.599Z,9.08
2023-03-28T00:21:23.605Z,8.56
2023-03-28T00:23:53.636Z,9.19
2023-03-28T00:26:24.809Z,9.26
2023-03-28T00:28:53.031Z,9.06
2023-03-28T00:31:22.804Z,9.26
2023-03-28T00:33:50.734Z,9.23
2023-03-28T00:36:23.116Z,9.33
2023-03-28T00:38:52.402Z,9.40
2023-03-28T00:41:21.970Z,9.43
2023-03-28T00:43:52.592Z,9.55
2023-03-28T00:46:27.526Z,10.13
2023-03-28T00:49:02.817Z,9.84
2023-03-28T00:51:37.089Z,10.49
2023-03-28T00:54:12.035Z,10.66
2023-03-28T00:56:45.934Z,10.48
2023-03-28T00:59:19.138Z,10.02
2023-03-28T01:01:48.797Z,10.07
2023-03-28T01:04:22.220Z,9.88
2023-03-28T01:06:55.000Z,9.93
2023-03-28T01:09:25.027Z,9.98
2023-03-28T01:11:56.554Z,10.36
2023-03-28T01:14:27.910Z,9.87
2023-03-28T01:16:57.789Z,10.27
2023-03-28T01:19:43.770Z,10.25
2023-03-28T01:22:57.250Z,10.20
2023-03-28T01:26:08.794Z,10.15
2023-03-28T01:29:08.840Z,9.87
2023-03-28T01:31:58.478Z,9.72
2023-03-28T01:34:49.684Z,9.59
2023-03-28T01:37:34.478Z,9.55
2023-03-28T01:40:29.431Z,9.41
2023-03-28T01:43:15.310Z,9.25
2023-03-28T01:45:54.432Z,9.36
2023-03-28T01:48:35.904Z,9.56
2023-03-28T01:51:15.951Z,9.08
2023-03-28T01:53:53.587Z,9.48
2023-03-28T01:56:32.384Z,9.50
2023-03-28T01:59:09.145Z,8.73
2023-03-28T02:01:47.581Z,8.60
2023-03-28T02:04:21.320Z,8.85
2023-03-28T02:06:52.857Z,8.44
2023-03-28T02:09:26.325Z,9.00
2023-03-28T02:12:00.283Z,8.79
2023-03-28T02:14:35.494Z,8.56
2023-03-28T02:17:15.891Z,8.92
2023-03-28T02:19:50.304Z,8.41
2023-03-28T02:22:25.484Z,8.63
2023-03-28T02:24:54.772Z,9.19
2023-03-28T02:27:23.866Z,8.91
2023-03-28T02:29:54.666Z,9.53
2023-03-28T02:32:23.830Z,8.85
2023-03-28T02:34:56.511Z,8.70
2023-03-28T02:37:41.330Z,8.92
2023-03-28T02:40:29.068Z,8.40
2023-03-28T02:43:15.419Z,8.58
2023-03-28T02:46:08.652Z,8.43
2023-03-28T02:48:54.245Z,8.68
2023-03-28T02:51:34.723Z,8.27
2023-03-28T02:54:24.122Z,8.33
2023-03-28T02:57:03.567Z,8.56
2023-03-28T02:59:37.189Z,8.12
2023-03-28T03:02:05.916Z,8.29
2023-03-28T03:04:33.736Z,8.20
2023-03-28T03:07:02.539Z,8.42
2023-03-28T03:09:30.453Z,8.89
2023-03-28T03:11:59.684Z,8.11
2023-03-28T03:14:27.521Z,8.02
2023-03-28T03:16:55.660Z,7.95
2023-03-28T03:19:23.509Z,7.75
2023-03-28T03:21:51.818Z,7.88
2023-03-28T03:24:19.649Z,8.12
2023-03-28T03:26:47.471Z,8.21
2023-03-28T03:29:16.878Z,7.96
2023-03-28T03:31:44.789Z,8.34
2023-03-28T03:34:12.696Z,8.29
2023-03-28T03:36:40.648Z,8.25
2023-03-28T03:39:08.606Z,8.31
2023-03-28T03:41:36.481Z,8.56
2023-03-28T03:44:04.649Z,8.22
2023-03-28T03:46:33.961Z,8.36
2023-03-28T03:49:01.930Z,8.66
2023-03-28T03:51:29.812Z,9.05
2023-03-28T03:53:59.507Z,8.52
2023-03-28T03:56:27.356Z,8.88
2023-03-28T03:58:55.563Z,9.08
2023-03-28T04:01:54.280Z,8.45
2023-03-28T04:04:23.698Z,8.87
2023-03-28T04:06:51.604Z,9.11
2023-03-28T04:09:20.612Z,8.81
2023-03-28T04:11:48.598Z,9.33
2023-03-28T04:14:16.610Z,9.61
2023-03-28T04:16:44.844Z,9.17
2023-03-28T04:19:13.856Z,10.05
2023-03-28T04:21:43.745Z,9.85
2023-03-28T04:24:15.646Z,9.72
2023-03-28T04:26:45.925Z,9.48
2023-03-28T04:29:14.200Z,9.49
2023-03-28T04:31:49.705Z,9.09
2023-03-28T04:34:20.099Z,9.15
2023-03-28T04:36:49.357Z,9.72
2023-03-28T04:39:17.260Z,10.00
2023-03-28T04:41:46.458Z,9.88
2023-03-28T04:44:14.404Z,10.16
2023-03-28T04:46:42.284Z,10.80
2023-03-28T04:49:10.804Z,10.52
2023-03-28T04:51:38.686Z,10.76
2023-03-28T04:54:07.925Z,11.02
2023-03-28T04:56:36.516Z,10.84
2023-03-28T04:59:04.408Z,13.02
2023-03-28T05:01:33.093Z,12.52
2023-03-28T05:04:01.289Z,12.42
2023-03-28T05:06:29.134Z,14.20
2023-03-28T05:08:57.734Z,14.27
2023-03-28T05:11:26.984Z,12.28
2023-03-28T05:13:54.878Z,11.39
2023-03-28T05:16:22.819Z,11.16
2023-03-28T05:18:51.371Z,11.30
2023-03-28T05:21:19.304Z,10.81
2023-03-28T05:23:52.000Z,10.98
2023-03-28T05:26:23.585Z,10.74
2023-03-28T05:28:52.820Z,10.54
2023-03-28T05:31:20.940Z,10.20
2023-03-28T05:33:48.874Z,11.00
2023-03-28T05:36:16.973Z,10.85
2023-03-28T05:38:44.806Z,10.58
2023-03-28T05:41:12.865Z,10.37
2023-03-28T05:43:40.744Z,10.52
2023-03-28T05:46:10.042Z,11.03
2023-03-28T05:48:37.964Z,10.80
2023-03-28T05:51:06.246Z,10.53
2023-03-28T05:53:34.053Z,9.95
2023-03-28T05:56:01.942Z,10.81
2023-03-28T05:58:30.106Z,10.54
2023-03-28T06:00:58.186Z,9.69
2023-03-28T06:03:28.081Z,9.66
2023-03-28T06:05:56.689Z,9.44
2023-03-28T06:08:24.599Z,9.35
2023-03-28T06:10:52.511Z,9.61
2023-03-28T06:13:20.688Z,9.50
2023-03-28T06:15:48.666Z,9.65
2023-03-28T06:18:16.575Z,10.04
2023-03-28T06:20:45.875Z,9.85
2023-03-28T06:23:13.874Z,10.25
2023-03-28T06:25:41.797Z,10.13
2023-03-28T06:28:09.671Z,10.24
2023-03-28T06:30:39.868Z,10.35
2023-03-28T06:33:07.921Z,10.03
2023-03-28T06:35:36.166Z,10.65
2023-03-28T06:38:05.574Z,10.30
2023-03-28T06:40:33.746Z,9.96
2023-03-28T06:43:01.603Z,10.61
2023-03-28T06:45:29.409Z,10.37
2023-03-28T06:47:57.336Z,9.90
2023-03-28T06:50:25.268Z,9.91
2023-03-28T06:52:53.279Z,9.93
2023-03-28T06:55:23.147Z,10.04
2023-03-28T06:57:51.075Z,9.90
2023-03-28T07:00:19.767Z,10.45
2023-03-28T07:02:47.832Z,10.97
2023-03-28T07:05:15.860Z,10.44
2023-03-28T07:10:11.792Z,10.70
2023-03-28T07:12:41.198Z,10.90
2023-03-28T07:15:09.883Z,10.92
2023-03-28T07:17:38.024Z,11.17
2023-03-28T07:20:07.004Z,10.64
2023-03-28T07:22:34.830Z,16.23
2023-03-28T07:25:04.066Z,11.03
2023-03-28T07:27:32.058Z,11.12
2023-03-28T07:30:01.637Z,11.07
2023-03-28T07:32:35.793Z,10.55
2023-03-28T07:35:09.405Z,10.30
2023-03-28T07:37:37.248Z,11.28
2023-03-28T07:40:06.292Z,10.63
2023-03-28T07:42:34.441Z,10.51
2023-03-28T07:45:03.794Z,10.09
2023-03-28T07:47:31.723Z,10.11
2023-03-28T07:49:59.633Z,10.44
2023-03-28T07:52:28.029Z,10.33
2023-03-28T07:54:58.363Z,10.19
2023-03-28T07:57:26.724Z,10.11
2023-03-28T07:59:56.172Z,10.53
2023-03-28T08:02:25.530Z,9.84
2023-03-28T08:04:54.457Z,9.38
2023-03-28T08:07:22.427Z,9.28
2023-03-28T08:09:56.311Z,9.52
2023-03-28T08:12:25.752Z,9.12
2023-03-28T08:14:53.592Z,8.85
2023-03-28T08:17:21.729Z,8.76
2023-03-28T08:19:51.048Z,8.35
2023-03-28T08:22:18.913Z,8.44
2023-03-28T08:24:46.985Z,8.03
2023-03-28T08:27:15.208Z,8.35
2023-03-28T08:29:43.063Z,7.25
2023-03-28T08:32:11.098Z,7.77
2023-03-28T08:34:40.558Z,9.59
2023-03-28T08:37:09.909Z,8.48
2023-03-28T08:39:41.078Z,7.84
2023-03-28T08:42:34.327Z,9.05
2023-03-28T08:45:23.333Z,7.62
2023-03-28T08:48:08.590Z,5.72
2023-03-28T08:50:42.720Z,6.17
2023-03-28T08:53:23.581Z,6.15
2023-03-28T08:55:54.477Z,6.17
2023-03-28T08:58:25.068Z,5.62
2023-03-28T09:00:54.087Z,6.21
2023-03-28T09:03:25.294Z,6.69
2023-03-28T09:06:01.208Z,5.93
2023-03-28T09:08:54.128Z,5.67
2023-03-28T09:11:38.802Z,5.97
2023-03-28T09:14:25.363Z,4.79
2023-03-28T09:17:06.643Z,4.55
2023-03-28T09:19:49.414Z,4.70
2023-03-28T09:22:33.950Z,4.83
2023-03-28T09:25:22.833Z,4.08
2023-03-28T09:28:01.065Z,4.40
2023-03-28T09:30:33.352Z,4.87
2023-03-28T09:33:07.321Z,4.63
2023-03-28T09:35:35.489Z,4.01
2023-03-28T09:38:06.806Z,4.03
2023-03-28T09:40:37.316Z,4.87
2023-03-28T09:43:16.256Z,4.67
2023-03-28T09:45:58.529Z,3.08
2023-03-28T09:48:30.241Z,2.99
2023-03-28T09:50:59.572Z,3.12
2023-03-28T09:53:32.927Z,2.94
2023-03-28T09:56:07.689Z,3.21
2023-03-28T09:58:50.489Z,3.12
2023-03-28T10:01:34.946Z,2.40
2023-03-28T10:04:03.070Z,2.21
2023-03-28T10:06:32.812Z,2.23
2023-03-28T10:09:19.744Z,2.46
2023-03-28T10:11:55.622Z,2.58
2023-03-28T10:14:31.850Z,2.42
2023-03-28T10:17:04.465Z,2.24
2023-03-28T10:19:36.347Z,2.27
2023-03-28T10:22:09.394Z,2.28
2023-03-28T10:24:38.807Z,2.46
2023-03-28T10:27:18.835Z,2.35
2023-03-28T10:29:48.536Z,2.25
2023-03-28T10:32:26.941Z,2.22
2023-03-28T10:35:09.892Z,2.28
2023-03-28T10:37:37.825Z,2.75
2023-03-28T10:40:23.435Z,2.53
2023-03-28T10:42:52.986Z,2.76
2023-03-28T10:45:26.983Z,2.53
2023-03-28T10:48:00.940Z,2.63
2023-03-28T10:50:36.816Z,2.48
2023-03-28T10:53:25.114Z,2.19
2023-03-28T10:56:10.836Z,2.09
2023-03-28T10:58:48.180Z,2.47
2023-03-28T11:01:21.174Z,2.35
2023-03-28T11:04:13.132Z,2.45
2023-03-28T11:06:51.553Z,2.39
2023-03-28T11:09:27.949Z,2.94
2023-03-28T11:12:08.392Z,2.92
2023-03-28T11:14:53.992Z,2.19
2023-03-28T11:17:36.549Z,2.25
2023-03-28T11:20:30.429Z,2.12
2023-03-28T11:23:18.929Z,2.37
2023-03-28T11:25:56.618Z,2.06
2023-03-28T11:28:35.790Z,1.71
2023-03-28T11:31:06.381Z,1.84
2023-03-28T11:33:44.463Z,1.89
2023-03-28T11:36:18.563Z,1.79
2023-03-28T11:38:54.495Z,1.89
2023-03-28T11:41:27.439Z,1.91
2023-03-28T11:44:04.125Z,2.01
2023-03-28T11:46:38.127Z,2.10
2023-03-28T11:49:19.177Z,1.95
2023-03-28T11:51:56.873Z,2.32
2023-03-28T11:54:33.424Z,1.94
2023-03-28T11:57:07.913Z,2.25
2023-03-28T11:59:46.410Z,2.37
2023-03-28T12:02:35.743Z,2.06
2023-03-28T12:05:13.515Z,1.79
2023-03-28T12:07:49.378Z,1.97
2023-03-28T12:10:24.676Z,2.01
2023-03-28T12:13:02.094Z,1.96
2023-03-28T12:15:39.322Z,2.00
2023-03-28T12:18:17.860Z,1.88
2023-03-28T12:20:55.967Z,1.81
2023-03-28T12:23:37.827Z,1.78
2023-03-28T12:26:21.359Z,2.13
2023-03-28T12:28:55.773Z,1.87
2023-03-28T12:31:30.583Z,1.93
2023-03-28T12:34:13.502Z,2.17
2023-03-28T12:36:50.802Z,4.82
2023-03-28T12:39:35.553Z,3.13
2023-03-28T12:42:07.453Z,2.63
2023-03-28T12:44:45.240Z,2.38
2023-03-28T12:47:20.720Z,2.31
2023-03-28T12:49:57.494Z,1.97
2023-03-28T12:52:32.170Z,1.91
2023-03-28T12:55:02.582Z,2.36
2023-03-28T12:57:46.706Z,2.29
2023-03-28T13:00:28.884Z,2.14
2023-03-28T13:03:19.658Z,2.81
2023-03-28T13:06:00.014Z,2.62
2023-03-28T13:08:47.745Z,1.97
2023-03-28T13:11:29.658Z,2.33
2023-03-28T13:14:10.051Z,2.33
2023-03-28T13:16:49.042Z,1.88
2023-03-28T13:19:18.722Z,2.74
2023-03-28T13:21:53.799Z,2.18
2023-03-28T13:24:31.726Z,2.18
2023-03-28T13:27:01.811Z,2.39
2023-03-28T13:29:47.165Z,2.32
2023-03-28T13:32:17.851Z,2.58
2023-03-28T13:34:51.394Z,2.75
2023-03-28T13:37:23.494Z,2.25
2023-03-28T13:39:53.375Z,2.24
2023-03-28T13:42:30.760Z,2.22
2023-03-28T13:45:04.212Z,2.23
2023-03-28T13:47:41.485Z,2.20
2023-03-28T13:50:23.477Z,2.48
2023-03-28T13:52:52.729Z,3.07
2023-03-28T13:55:23.460Z,2.52
2023-03-28T13:57:52.576Z,2.76
2023-03-28T14:00:25.471Z,2.67
2023-03-28T14:02:55.582Z,2.65
2023-03-28T14:05:25.799Z,2.57
2023-03-28T14:08:02.747Z,3.06
2023-03-28T14:10:33.585Z,3.27
2023-03-28T14:13:05.544Z,3.33
2023-03-28T14:15:37.539Z,2.97
2023-03-28T14:18:06.184Z,2.72
2023-03-28T14:20:36.293Z,2.83
2023-03-28T14:23:06.985Z,3.21
2023-03-28T14:25:35.503Z,3.35
2023-03-28T14:28:09.550Z,3.07
2023-03-28T14:30:42.757Z,3.22
2023-03-28T14:33:21.238Z,3.12
2023-03-28T14:36:00.051Z,3.23
2023-03-28T14:38:33.317Z,3.14
2023-03-28T14:41:14.342Z,3.24
2023-03-28T14:43:42.473Z,3.21
2023-03-28T14:46:12.007Z,3.11
2023-03-28T14:48:43.231Z,3.31
2023-03-28T14:51:15.036Z,3.35
2023-03-28T14:53:47.550Z,3.12
2023-03-28T14:56:23.130Z,3.10
2023-03-28T14:58:55.683Z,3.10
2023-03-28T15:01:24.709Z,3.15
2023-03-28T15:03:59.802Z,3.09
2023-03-28T15:06:29.274Z,3.25
2023-03-28T15:09:04.179Z,3.54
2023-03-28T15:11:37.111Z,3.39
2023-03-28T15:14:13.959Z,3.49
2023-03-28T15:16:46.621Z,3.44
2023-03-28T15:19:24.056Z,3.60
2023-03-28T15:21:58.282Z,3.26
2023-03-28T15:24:30.000Z,3.12
2023-03-28T15:27:01.525Z,3.10
2023-03-28T15:29:36.041Z,3.04
2023-03-28T15:32:07.115Z,3.19
2023-03-28T15:34:45.525Z,3.22
2023-03-28T15:37:19.592Z,3.67
2023-03-28T15:39:52.160Z,3.51
2023-03-28T15:42:35.811Z,6.09
2023-03-28T15:45:28.374Z,3.43
2023-03-28T15:47:57.791Z,3.30
2023-03-28T15:50:31.041Z,3.28
2023-03-28T15:53:02.007Z,3.55
2023-03-28T15:55:32.777Z,4.24
2023-03-28T15:58:01.349Z,4.11
2023-03-28T16:00:44.826Z,3.58
2023-03-28T16:03:34.501Z,3.39
2023-03-28T16:06:26.683Z,3.48
2023-03-28T16:09:14.024Z,3.62
2023-03-28T16:11:44.132Z,3.62
2023-03-28T16:14:17.224Z,3.55
2023-03-28T16:16:45.795Z,3.36
2023-03-28T16:19:20.322Z,3.74
2023-03-28T16:21:49.721Z,3.66
2023-03-28T16:24:19.659Z,3.54
2023-03-28T16:26:49.636Z,3.70
2023-03-28T16:29:17.841Z,3.58
2023-03-28T16:31:46.472Z,3.35
2023-03-28T16:34:14.414Z,3.34
2023-03-28T16:36:42.241Z,3.39
2023-03-28T16:39:11.696Z,3.54
2023-03-28T16:41:39.530Z,3.57
2023-03-28T16:44:08.771Z,3.72
2023-03-28T16:46:36.640Z,3.63
2023-03-28T16:49:04.647Z,3.59
2023-03-28T16:51:32.575Z,3.65
2023-03-28T16:54:00.739Z,3.26
2023-03-28T16:56:30.190Z,3.44
2023-03-28T16:58:58.121Z,3.37
2023-03-28T17:01:27.547Z,3.40
2023-03-28T17:03:55.754Z,3.38
2023-03-28T17:06:23.800Z,3.81
2023-03-28T17:08:53.365Z,4.00
2023-03-28T17:11:23.297Z,4.00
2023-03-28T17:13:54.516Z,3.28
2023-03-28T17:16:23.505Z,3.25
2023-03-28T17:18:53.751Z,3.30
2023-03-28T17:21:21.675Z,3.55
2023-03-28T17:23:50.950Z,3.54
2023-03-28T17:26:19.244Z,3.43
2023-03-28T17:28:47.239Z,3.27
2023-03-28T17:31:18.507Z,3.25
2023-03-28T17:33:48.448Z,3.49
2023-03-28T17:36:22.001Z,3.82
2023-03-28T17:38:51.907Z,3.72
2023-03-28T17:41:23.072Z,3.61
2023-03-28T17:43:52.262Z,3.76
2023-03-28T17:46:21.394Z,3.78
2023-03-28T17:48:49.993Z,3.61
2023-03-28T17:51:19.225Z,3.79
2023-03-28T17:53:48.533Z,5.37
2023-03-28T17:56:17.565Z,6.43
2023-03-28T17:58:46.589Z,5.29
2023-03-28T18:01:17.262Z,4.29
2023-03-28T18:03:46.874Z,3.95
2023-03-28T18:06:15.366Z,4.41
2023-03-28T18:08:45.312Z,4.37
2023-03-28T18:11:16.418Z,4.20
2023-03-28T18:13:45.085Z,4.14
2023-03-28T18:16:17.949Z,3.82
2023-03-28T18:18:46.757Z,3.92
2023-03-28T18:21:15.061Z,4.13
2023-03-28T18:23:44.296Z,4.50
2023-03-28T18:26:13.061Z,4.73
2023-03-28T18:28:41.098Z,5.07
2023-03-28T18:31:11.528Z,4.28
2023-03-28T18:33:40.388Z,4.54
2023-03-28T18:36:09.378Z,4.51
2023-03-28T18:38:38.297Z,4.32
2023-03-28T18:41:09.177Z,5.62
2023-03-28T18:43:37.402Z,6.32
2023-03-28T18:46:07.789Z,5.77
2023-03-28T18:48:36.801Z,5.95
2023-03-28T18:51:06.402Z,5.51
2023-03-28T18:53:35.515Z,6.11
2023-03-28T18:56:03.477Z,6.17
2023-03-28T18:58:33.227Z,6.06
2023-03-28T19:01:03.734Z,5.99
2023-03-28T19:03:38.470Z,6.62
2023-03-28T19:06:08.483Z,6.17
2023-03-28T19:08:36.396Z,5.69
2023-03-28T19:11:09.118Z,5.85
2023-03-28T19:13:38.714Z,5.80
2023-03-28T19:16:08.908Z,5.75
2023-03-28T19:18:38.494Z,5.78
2023-03-28T19:21:07.257Z,6.09
2023-03-28T19:23:36.835Z,5.76
2023-03-28T19:26:05.706Z,5.67
2023-03-28T19:28:33.741Z,5.66
2023-03-28T19:31:06.384Z,5.65
2023-03-28T19:33:35.294Z,5.74
2023-03-28T19:36:03.498Z,6.39
2023-03-28T19:38:34.872Z,6.54
2023-03-28T19:41:07.129Z,6.72
2023-03-28T19:43:37.225Z,6.45
2023-03-28T19:46:09.317Z,7.23
2023-03-28T19:48:37.625Z,7.19
2023-03-28T19:51:05.835Z,7.12
2023-03-28T19:53:33.816Z,6.07
2023-03-28T19:56:01.921Z,6.16
2023-03-28T19:58:31.212Z,6.21
2023-03-28T20:00:59.336Z,5.82
2023-03-28T20:03:28.689Z,6.08
2023-03-28T20:05:56.508Z,6.05
2023-03-28T20:08:24.372Z,6.15
2023-03-28T20:10:53.685Z,5.96
2023-03-28T20:13:21.657Z,5.95
2023-03-28T20:15:49.607Z,5.95
2023-03-28T20:18:20.524Z,5.91
2023-03-28T20:20:54.585Z,5.90
2023-03-28T20:23:24.834Z,6.06
2023-03-28T20:25:54.529Z,5.89
2023-03-28T20:28:24.826Z,6.05
2023-03-28T20:30:54.581Z,5.73
2023-03-28T20:33:22.781Z,6.14
2023-03-28T20:35:57.209Z,5.67
2023-03-28T20:38:25.792Z,5.45
2023-03-28T20:40:53.765Z,5.73
2023-03-28T20:43:24.115Z,5.57
2023-03-28T20:45:54.299Z,5.43
2023-03-28T20:48:26.015Z,5.45
2023-03-28T20:50:55.403Z,5.11
2023-03-28T20:53:23.590Z,5.58
2023-03-28T20:56:01.911Z,5.67
2023-03-28T20:58:31.636Z,5.65
2023-03-28T21:01:02.081Z,5.59
2023-03-28T21:03:48.976Z,5.61
2023-03-28T21:06:20.460Z,5.57
2023-03-28T21:08:50.910Z,5.66
2023-03-28T21:11:21.308Z,5.88
2023-03-28T21:13:49.272Z,5.74
2023-03-28T21:16:18.288Z,5.51
2023-03-28T21:18:47.005Z,5.83
2023-03-28T21:21:18.686Z,5.79
2023-03-28T21:23:47.746Z,5.61
2023-03-28T21:26:18.136Z,5.90
2023-03-28T21:28:46.828Z,6.10
2023-03-28T21:31:17.326Z,6.08
2023-03-28T21:33:45.745Z,5.98
2023-03-28T21:36:16.844Z,6.02
2023-03-28T21:38:47.094Z,5.92
2023-03-28T21:41:15.298Z,6.18
2023-03-28T21:43:43.727Z,6.02
2023-03-28T21:46:13.556Z,5.82
2023-03-28T21:48:44.598Z,5.94
2023-03-28T21:51:12.509Z,6.18
2023-03-28T21:53:42.310Z,5.99
2023-03-28T21:56:14.300Z,6.06
2023-03-28T21:58:42.379Z,6.16
2023-03-28T22:01:13.838Z,6.10
2023-03-28T22:03:41.986Z,6.00
2023-03-28T22:06:10.991Z,6.04
2023-03-28T22:08:40.520Z,5.90
2023-03-28T22:11:15.109Z,5.96
2023-03-28T22:13:45.214Z,6.56
2023-03-28T22:16:14.200Z,6.58
2023-03-28T22:18:49.938Z,6.29
2023-03-28T22:21:18.223Z,6.23
2023-03-28T22:23:47.572Z,6.18
2023-03-28T22:26:17.916Z,6.16
2023-03-28T22:28:46.131Z,6.11
2023-03-28T22:31:16.833Z,6.48
2023-03-28T22:33:44.923Z,6.00
2023-03-28T22:36:13.501Z,6.05
2023-03-28T22:38:41.789Z,6.14
2023-03-28T22:41:09.670Z,6.18
2023-03-28T22:43:42.719Z,6.12
2023-03-28T22:46:12.694Z,6.24
2023-03-28T22:48:42.026Z,6.27
2023-03-28T22:51:11.907Z,7.93
2023-03-28T22:53:41.114Z,8.04
2023-03-28T22:56:09.869Z,7.52
2023-03-28T22:58:39.125Z,7.26
2023-03-28T23:01:07.747Z,6.83
2023-03-28T23:03:35.602Z,6.68
2023-03-28T23:06:06.096Z,6.68
2023-03-28T23:08:34.111Z,6.80
2023-03-28T23:11:02.176Z,6.68
2023-03-28T23:13:30.185Z,7.04
2023-03-28T23:15:59.855Z,7.14
2023-03-28T23:18:27.778Z,7.22
2023-03-28T23:20:55.595Z,7.31
2023-03-28T23:23:24.401Z,7.32
2023-03-28T23:25:52.303Z,7.38
2023-03-28T23:28:20.437Z,7.39
2023-03-28T23:30:48.296Z,7.25
2023-03-28T23:33:18.373Z,7.09
2023-03-28T23:35:48.313Z,7.05
2023-03-28T23:38:17.667Z,6.93
2023-03-28T23:40:46.647Z,6.58
2023-03-28T23:43:14.724Z,6.50
2023-03-28T23:45:43.838Z,6.64
2023-03-28T23:48:11.742Z,6.20
2023-03-28T23:50:41.142Z,6.32
2023-03-28T23:53:09.400Z,6.28
2023-03-28T23:55:37.380Z,6.63
2023-03-28T23:58:05.241Z,6.25
